Time;durP1;ratioP1;P1;durP2;ratioP2;P2;SDS_P1;SDS_P2;PMS_P1;PMS_P2;Temp;Humidity;BMP_temperature;BMP_pressure;BME280_temperature;BME280_humidity;BME280_pressure;Samples;Min_cycle;Max_cycle;Signal;HPM_P1;HPM_P2
2022/12/13 00:00:56;;;;;;;23.30;21.08;;;0.90;99.90;;;;;;4257949;28;20053;-81
2022/12/13 00:03:16;;;;;;;25.65;23.05;;;0.90;99.90;;;;;;4257630;28;20087;-81
2022/12/13 00:05:43;;;;;;;22.20;20.45;;;0.80;99.90;;;;;;4256748;28;20069;-81
2022/12/13 00:08:03;;;;;;;20.30;18.73;;;0.80;99.90;;;;;;4255988;28;20445;-81
2022/12/13 00:10:23;;;;;;;19.35;17.83;;;0.80;99.90;;;;;;4242417;28;20050;-81
2022/12/13 00:12:43;;;;;;;22.42;20.50;;;0.80;99.90;;;;;;4256188;28;20143;-82
2022/12/13 00:15:03;;;;;;;20.88;19.02;;;0.70;99.90;;;;;;4256725;28;20109;-81
2022/12/13 00:17:23;;;;;;;22.15;19.92;;;0.70;99.90;;;;;;4257412;27;20077;-82
2022/12/13 00:19:42;;;;;;;22.05;20.08;;;0.70;99.90;;;;;;4257047;28;20106;-82
2022/12/13 00:22:02;;;;;;;30.42;24.92;;;0.70;99.90;;;;;;4256801;28;20050;-81
2022/12/13 00:24:22;;;;;;;24.23;21.60;;;0.70;99.90;;;;;;4257297;28;20097;-81
2022/12/13 00:26:41;;;;;;;36.13;25.17;;;0.70;99.90;;;;;;4257043;28;20050;-81
2022/12/13 00:29:04;;;;;;;26.33;21.25;;;0.70;99.90;;;;;;4242091;28;20046;-81
2022/12/13 00:31:25;;;;;;;21.10;19.10;;;0.70;99.90;;;;;;4241696;28;20051;-81
2022/12/13 00:34:05;;;;;;;22.95;20.63;;;0.70;99.90;;;;;;4257057;28;20060;-81
2022/12/13 00:36:25;;;;;;;20.83;19.23;;;0.70;99.90;;;;;;4241218;28;20071;-82
2022/12/13 00:38:45;;;;;;;18.30;16.90;;;0.70;99.90;;;;;;4257003;28;20042;-81
2022/12/13 00:41:17;;;;;;;18.48;16.98;;;0.70;99.90;;;;;;4241176;28;20373;-81
2022/12/13 00:43:37;;;;;;;18.45;17.02;;;0.70;99.90;;;;;;4256940;28;20061;-81
2022/12/13 00:45:58;;;;;;;17.48;16.10;;;0.70;99.90;;;;;;4256379;28;20046;-81
2022/12/13 00:48:18;;;;;;;15.15;14.27;;;0.70;99.90;;;;;;4256712;28;20046;-82
2022/12/13 00:50:38;;;;;;;12.88;12.25;;;0.70;99.90;;;;;;4256364;28;20398;-81
2022/12/13 00:52:59;;;;;;;15.20;14.27;;;0.70;99.90;;;;;;4241321;28;20062;-81
2022/12/13 00:55:19;;;;;;;16.13;15.18;;;0.70;99.90;;;;;;4256436;28;20046;-81
2022/12/13 00:57:39;;;;;;;16.33;15.32;;;0.80;99.90;;;;;;4241787;28;20042;-81
2022/12/13 00:59:59;;;;;;;13.75;13.05;;;0.70;99.90;;;;;;4256998;28;20403;-81
2022/12/13 01:02:18;;;;;;;15.88;14.98;;;0.70;99.90;;;;;;4241598;28;20121;-81
2022/12/13 01:04:38;;;;;;;13.90;13.20;;;0.70;99.90;;;;;;4256626;28;20050;-82
2022/12/13 01:06:58;;;;;;;14.05;13.35;;;0.70;99.90;;;;;;4256009;28;20042;-81
2022/12/13 01:09:26;;;;;;;15.43;14.40;;;0.70;99.90;;;;;;4257004;28;20536;-81
2022/12/13 01:11:47;;;;;;;13.85;13.15;;;0.80;99.90;;;;;;4255121;28;20046;-82
2022/12/13 01:14:07;;;;;;;16.48;15.15;;;0.90;99.90;;;;;;4255811;28;20287;-81
2022/12/13 01:16:26;;;;;;;15.27;14.38;;;0.90;99.90;;;;;;4255150;28;20092;-81
2022/12/13 01:18:46;;;;;;;14.88;13.77;;;0.90;99.90;;;;;;4256825;28;20064;-81
2022/12/13 01:21:06;;;;;;;15.73;14.73;;;0.80;99.90;;;;;;4256885;28;20395;-81
2022/12/13 01:23:26;;;;;;;14.98;13.98;;;0.90;99.90;;;;;;4241443;28;20423;-81
2022/12/13 01:25:45;;;;;;;17.75;16.17;;;0.90;99.90;;;;;;4253871;28;20049;-82
2022/12/13 01:28:05;;;;;;;17.52;16.33;;;0.90;99.90;;;;;;4256473;28;20361;-81
2022/12/13 01:30:26;;;;;;;18.17;16.80;;;0.90;99.90;;;;;;4255251;27;20241;-82
2022/12/13 01:32:45;;;;;;;17.90;16.60;;;0.90;99.90;;;;;;4255409;28;20046;-81
2022/12/13 01:35:06;;;;;;;17.52;16.23;;;0.90;99.90;;;;;;4239748;28;20045;-81
2022/12/13 01:37:26;;;;;;;16.95;15.68;;;0.90;99.90;;;;;;4256615;28;20124;-81
2022/12/13 01:39:45;;;;;;;16.55;15.57;;;0.90;99.90;;;;;;4240483;28;20055;-82
2022/12/13 01:42:05;;;;;;;21.45;20.08;;;0.90;99.90;;;;;;4256622;28;20435;-81
2022/12/13 01:44:57;;;;;;;23.90;22.38;;;0.90;99.90;;;;;;4256174;28;20145;-81
2022/12/13 01:47:22;;;;;;;20.73;19.58;;;0.90;99.90;;;;;;4239842;28;20381;-81
2022/12/13 01:49:42;;;;;;;21.10;19.73;;;0.90;99.90;;;;;;4255391;28;20046;-82
2022/12/13 01:52:07;;;;;;;18.27;16.92;;;0.90;99.90;;;;;;4256366;28;20054;-81
2022/12/13 01:54:31;;;;;;;17.83;16.63;;;0.90;99.90;;;;;;4240395;28;20035;-81
2022/12/13 01:56:55;;;;;;;17.63;16.30;;;0.90;99.90;;;;;;4240758;28;20115;-81
2022/12/13 01:59:21;;;;;;;17.08;15.98;;;0.90;99.90;;;;;;4255959;28;20046;-81
2022/12/13 02:01:41;;;;;;;13.75;12.68;;;0.90;99.90;;;;;;4254900;28;20049;-81
2022/12/13 02:04:02;;;;;;;15.20;14.43;;;1.00;99.90;;;;;;4241037;28;20069;-80
2022/12/13 02:06:42;;;;;;;12.15;11.48;;;1.00;99.90;;;;;;4256331;28;20070;-81
2022/12/13 02:09:05;;;;;;;13.25;12.65;;;1.00;99.90;;;;;;4253945;28;20046;-80
2022/12/13 02:11:26;;;;;;;13.55;12.55;;;0.90;99.90;;;;;;4239405;28;20050;-80
2022/12/13 02:13:46;;;;;;;12.75;12.23;;;1.00;99.90;;;;;;4255036;28;20035;-80
2022/12/13 02:16:31;;;;;;;10.57;9.88;;;1.00;99.90;;;;;;4256263;28;20051;-80
2022/12/13 02:19:20;;;;;;;12.48;11.93;;;1.00;99.90;;;;;;4256178;28;20231;-81
2022/12/13 02:21:58;;;;;;;12.23;11.82;;;1.00;99.90;;;;;;4256153;28;20109;-81
2022/12/13 02:24:40;;;;;;;11.70;11.40;;;1.00;99.90;;;;;;4238969;28;20055;-81
2022/12/13 02:27:34;;;;;;;10.27;9.88;;;1.00;99.90;;;;;;4253866;28;20080;-81
2022/12/13 02:30:44;;;;;;;11.20;10.90;;;1.00;99.90;;;;;;4236050;28;20049;-81
2022/12/13 02:33:16;;;;;;;13.15;12.80;;;1.00;99.90;;;;;;4233064;28;20059;-81
2022/12/13 02:36:11;;;;;;;14.98;14.30;;;1.00;99.90;;;;;;4258637;27;20050;-81
2022/12/13 02:38:57;;;;;;;12.90;12.45;;;0.90;99.90;;;;;;4239280;28;20046;-81
2022/12/13 02:42:00;;;;;;;13.85;13.43;;;0.90;99.90;;;;;;4256247;27;20139;-81
2022/12/13 02:44:26;;;;;;;14.63;13.93;;;0.90;99.90;;;;;;4174936;28;20056;-81
2022/12/13 02:47:03;;;;;;;14.60;13.88;;;1.00;99.90;;;;;;4190143;28;20072;-81
2022/12/13 02:49:26;;;;;;;15.18;14.48;;;1.00;99.90;;;;;;4184561;28;20064;-80
2022/12/13 02:52:21;;;;;;;13.55;12.90;;;1.00;99.90;;;;;;4191128;28;20450;-80
2022/12/13 02:54:42;;;;;;;15.43;14.38;;;1.00;99.90;;;;;;4187494;28;20060;-81
2022/12/13 02:57:02;;;;;;;15.07;14.38;;;1.00;99.90;;;;;;4199809;28;20027;-81
2022/12/13 02:59:28;;;;;;;13.95;13.18;;;1.00;99.90;;;;;;4202366;28;20041;-81
2022/12/13 03:02:04;;;;;;;12.43;11.82;;;1.00;99.90;;;;;;4186601;28;20145;-81
2022/12/13 03:08:07;;;;;;;10.23;9.85;;;1.00;99.90;;;;;;4188570;28;20076;-81
2022/12/13 03:10:39;;;;;;;10.82;10.43;;;1.00;99.90;;;;;;4187397;28;20394;-81
2022/12/13 03:15:56;;;;;;;13.18;12.70;;;1.00;99.90;;;;;;4250967;28;20086;-82
2022/12/13 03:18:18;;;;;;;;;;;1.00;99.90;;;;;;4242131;28;20043;-80
2022/12/13 03:20:38;;;;;;;13.10;12.35;;;1.00;99.90;;;;;;4257430;28;19937;-81
2022/12/13 03:22:58;;;;;;;14.48;13.80;;;1.00;99.90;;;;;;4242797;28;20062;-81
2022/12/13 03:25:20;;;;;;;15.40;14.70;;;1.00;99.90;;;;;;4257994;28;20138;-81
2022/12/13 03:27:52;;;;;;;14.45;13.65;;;1.00;99.90;;;;;;4244296;28;20398;-81
2022/12/13 03:30:12;;;;;;;14.45;13.75;;;1.00;99.90;;;;;;4258199;28;20054;-81
2022/12/13 03:32:32;;;;;;;13.57;12.93;;;1.00;99.90;;;;;;4258293;28;20038;-81
2022/12/13 03:34:52;;;;;;;13.90;13.05;;;1.00;99.90;;;;;;4241415;28;20080;-81
2022/12/13 03:37:20;;;;;;;16.25;15.23;;;1.00;99.90;;;;;;4257120;28;20039;-80
2022/12/13 03:39:40;;;;;;;14.55;13.65;;;1.00;99.90;;;;;;4256821;28;20057;-81
2022/12/13 03:42:00;;;;;;;10.57;10.25;;;1.00;99.90;;;;;;4257607;28;20065;-81
2022/12/13 03:44:20;;;;;;;9.85;9.57;;;0.90;99.90;;;;;;4242353;28;20435;-81
2022/12/13 03:46:40;;;;;;;11.50;11.23;;;1.00;99.90;;;;;;4242432;28;20050;-81
2022/12/13 03:49:00;;;;;;;11.13;10.32;;;1.00;99.90;;;;;;4242616;28;20054;-81
2022/12/13 03:51:20;;;;;;;9.20;9.00;;;1.00;99.90;;;;;;4241677;28;20090;-81
2022/12/13 03:53:40;;;;;;;13.38;12.77;;;1.00;99.90;;;;;;4241289;28;20234;-81
2022/12/13 03:56:05;;;;;;;12.68;12.05;;;1.00;99.90;;;;;;4256405;28;20061;-81
2022/12/13 03:58:25;;;;;;;12.73;12.32;;;1.00;99.90;;;;;;4257693;28;20388;-81
2022/12/13 04:00:54;;;;;;;14.18;13.52;;;1.00;99.90;;;;;;4256238;28;20080;-81
2022/12/13 04:03:14;;;;;;;12.93;12.40;;;1.00;99.90;;;;;;4257983;28;20087;-81
2022/12/13 04:05:35;;;;;;;12.85;12.05;;;1.00;99.90;;;;;;4242572;28;20369;-81
2022/12/13 04:07:56;;;;;;;13.20;12.45;;;1.10;99.90;;;;;;4257782;28;20043;-81
2022/12/13 04:10:20;;;;;;;12.00;11.57;;;1.00;99.90;;;;;;4257295;28;20075;-81
2022/12/13 04:15:24;;;;;;;11.20;10.90;;;1.10;99.90;;;;;;4255488;28;20049;-81
2022/12/13 04:17:44;;;;;;;9.23;8.93;;;1.10;99.90;;;;;;4240100;28;20061;-81
2022/12/13 04:20:11;;;;;;;11.52;11.23;;;1.10;99.90;;;;;;4242056;28;20076;-82
2022/12/13 04:22:31;;;;;;;10.15;9.95;;;1.10;99.90;;;;;;4242159;28;20043;-81
2022/12/13 04:24:51;;;;;;;12.20;11.60;;;1.00;99.90;;;;;;4257418;28;20385;-81
2022/12/13 04:27:11;;;;;;;10.90;10.43;;;1.00;99.90;;;;;;4257611;28;20058;-80
2022/12/13 04:29:32;;;;;;;12.80;12.23;;;1.00;99.90;;;;;;4240593;28;20047;-81
2022/12/13 04:31:53;;;;;;;11.70;11.20;;;1.00;99.90;;;;;;4257615;28;20258;-81
2022/12/13 04:34:14;;;;;;;12.68;12.30;;;1.00;99.90;;;;;;4241272;28;20357;-81
2022/12/13 04:36:34;;;;;;;11.90;11.60;;;1.00;99.90;;;;;;4257171;28;20369;-81
2022/12/13 04:38:54;;;;;;;11.82;11.43;;;1.00;99.90;;;;;;4241993;28;20042;-81
2022/12/13 04:41:18;;;;;;;12.10;11.45;;;1.10;99.90;;;;;;4255751;28;20238;-81
2022/12/13 04:43:38;;;;;;;10.85;10.65;;;1.10;99.90;;;;;;4255526;28;20070;-81
2022/12/13 04:45:58;;;;;;;11.75;11.13;;;1.10;99.90;;;;;;4241785;28;20113;-81
2022/12/13 04:48:18;;;;;;;12.27;11.77;;;1.10;99.90;;;;;;4255980;28;20053;-81
2022/12/13 04:50:51;;;;;;;12.10;11.63;;;1.00;99.90;;;;;;4242922;28;20050;-81
2022/12/13 04:53:15;;;;;;;13.18;12.43;;;1.00;99.90;;;;;;4240634;28;20129;-80
2022/12/13 04:55:36;;;;;;;15.43;14.73;;;1.00;99.90;;;;;;4232155;28;20050;-81
2022/12/13 04:57:56;;;;;;;13.40;12.90;;;1.00;99.90;;;;;;4256573;28;20046;-81
2022/12/13 05:00:16;;;;;;;13.00;12.70;;;1.00;99.90;;;;;;4241518;28;20057;-81
2022/12/13 05:02:35;;;;;;;13.43;13.02;;;1.00;99.90;;;;;;4231481;28;20283;-81
2022/12/13 05:04:55;;;;;;;11.38;11.00;;;1.00;99.90;;;;;;4239983;28;20054;-81
2022/12/13 05:07:15;;;;;;;11.43;11.15;;;1.00;99.90;;;;;;4240497;28;20059;-81
2022/12/13 05:09:35;;;;;;;12.32;12.07;;;1.00;99.90;;;;;;4239966;28;20046;-81
2022/12/13 05:11:55;;;;;;;11.70;11.40;;;1.00;99.90;;;;;;4241211;28;20096;-82
2022/12/13 05:14:21;;;;;;;11.35;11.10;;;1.10;99.90;;;;;;4256869;28;20077;-81
2022/12/13 05:16:42;;;;;;;10.93;10.63;;;1.10;99.90;;;;;;4240888;28;20082;-81
2022/12/13 05:19:03;;;;;;;11.00;10.80;;;1.10;99.90;;;;;;4255432;28;20034;-81
2022/12/13 05:21:23;;;;;;;9.05;8.95;;;1.10;99.90;;;;;;4241471;28;20054;-81
2022/12/13 05:23:42;;;;;;;9.05;8.82;;;1.10;99.90;;;;;;4255083;28;20042;-81
2022/12/13 05:26:03;;;;;;;7.75;7.65;;;1.10;99.90;;;;;;4241382;28;20050;-81
2022/12/13 05:28:26;;;;;;;8.80;8.48;;;1.10;99.90;;;;;;4256416;28;20100;-81
2022/12/13 05:30:48;;;;;;;9.65;9.43;;;1.20;99.90;;;;;;4241507;28;20118;-81
2022/12/13 05:33:08;;;;;;;9.32;9.13;;;1.20;99.90;;;;;;4256770;28;20069;-80
2022/12/13 05:35:28;;;;;;;7.53;7.43;;;1.20;99.90;;;;;;4240273;28;20050;-81
2022/12/13 05:37:48;;;;;;;8.95;8.57;;;1.10;99.90;;;;;;4256181;28;20088;-81
2022/12/13 05:40:13;;;;;;;9.68;9.27;;;1.10;99.90;;;;;;4241580;28;20035;-80
2022/12/13 05:42:33;;;;;;;8.02;7.72;;;1.20;99.90;;;;;;4239511;28;20084;-81
2022/12/13 05:44:53;;;;;;;9.48;9.27;;;1.10;99.90;;;;;;4241179;28;20047;-81
2022/12/13 05:47:13;;;;;;;9.30;9.18;;;1.10;99.90;;;;;;4238779;28;20125;-81
2022/12/13 05:49:32;;;;;;;8.70;8.43;;;1.10;99.90;;;;;;4256582;28;20099;-81
2022/12/13 05:51:52;;;;;;;7.90;7.75;;;1.10;99.90;;;;;;4241126;28;20065;-81
2022/12/13 05:54:12;;;;;;;10.00;9.77;;;1.10;99.90;;;;;;4240952;28;20105;-81
2022/12/13 05:56:31;;;;;;;10.98;10.50;;;1.10;99.90;;;;;;4240911;28;20068;-81
2022/12/13 05:58:53;;;;;;;8.70;8.50;;;1.10;99.90;;;;;;4256301;28;20042;-81
2022/12/13 06:01:15;;;;;;;9.05;8.77;;;1.10;99.90;;;;;;4240094;28;20069;-81
2022/12/13 06:03:35;;;;;;;9.05;8.95;;;1.20;99.90;;;;;;4255035;28;20588;-81
2022/12/13 06:05:59;;;;;;;8.13;7.90;;;1.10;99.90;;;;;;4238673;28;20085;-81
2022/12/13 06:08:19;;;;;;;8.77;8.55;;;1.20;99.90;;;;;;4242894;28;20053;-81
2022/12/13 06:10:52;;;;;;;8.55;8.45;;;1.20;99.90;;;;;;4256135;28;20119;-81
2022/12/13 06:13:29;;;;;;;8.73;8.52;;;1.20;99.90;;;;;;4256143;28;20149;-81
2022/12/13 06:15:52;;;;;;;9.00;8.70;;;1.10;99.90;;;;;;4257186;27;20050;-81
2022/12/13 06:18:21;;;;;;;7.28;7.18;;;1.20;99.90;;;;;;4244530;28;20045;-81
2022/12/13 06:20:41;;;;;;;10.23;9.82;;;1.20;99.90;;;;;;4243207;28;20046;-81
2022/12/13 06:23:01;;;;;;;8.35;8.25;;;1.20;99.90;;;;;;4242413;28;20143;-81
2022/12/13 06:25:21;;;;;;;8.20;8.00;;;1.20;99.90;;;;;;4241842;28;20046;-80
2022/12/13 06:27:52;;;;;;;8.32;8.23;;;1.20;99.90;;;;;;4243996;28;20102;-85
2022/12/13 06:30:12;;;;;;;8.90;8.50;;;1.20;99.90;;;;;;4258402;28;20050;-85
2022/12/13 06:32:32;;;;;;;9.27;9.05;;;1.20;99.90;;;;;;4258852;28;20057;-84
2022/12/13 06:34:52;;;;;;;8.02;7.93;;;1.20;99.90;;;;;;4258909;27;20399;-85
2022/12/13 06:37:16;;;;;;;8.52;8.43;;;1.20;99.90;;;;;;4244117;28;20042;-85
2022/12/13 06:39:36;;;;;;;8.45;8.35;;;1.20;99.90;;;;;;4243344;28;20103;-85
2022/12/13 06:41:56;;;;;;;8.50;8.10;;;1.20;99.90;;;;;;4258235;28;20084;-85
2022/12/13 06:44:15;;;;;;;9.40;9.20;;;1.20;99.90;;;;;;4242882;28;20138;-85
2022/12/13 06:46:35;;;;;;;8.98;8.82;;;1.30;99.90;;;;;;4243614;28;20054;-85
2022/12/13 06:49:00;;;;;;;7.90;7.80;;;1.30;99.90;;;;;;4259720;28;20042;-84
2022/12/13 06:51:57;;;;;;;10.70;10.10;;;1.20;99.90;;;;;;4242592;28;20109;-85
2022/12/13 06:54:17;;;;;;;10.43;9.90;;;1.30;99.90;;;;;;4261340;27;20034;-85
2022/12/13 06:56:41;;;;;;;11.25;10.68;;;1.30;99.90;;;;;;4258146;27;20074;-84
2022/12/13 06:59:01;;;;;;;9.68;9.48;;;1.30;99.90;;;;;;4267432;27;20045;-84
2022/12/13 07:01:21;;;;;;;12.00;11.27;;;1.30;99.90;;;;;;4243687;28;20123;-84
2022/12/13 07:03:44;;;;;;;10.30;9.88;;;1.30;99.90;;;;;;4258511;28;20064;-84
2022/12/13 07:06:08;;;;;;;9.93;9.73;;;1.30;99.90;;;;;;4258022;28;20110;-84
2022/12/13 07:08:28;;;;;;;11.57;11.02;;;1.30;99.90;;;;;;4243368;28;20360;-84
2022/12/13 07:10:48;;;;;;;10.65;10.20;;;1.30;99.90;;;;;;4258673;28;20265;-84
2022/12/13 07:13:09;;;;;;;11.32;11.02;;;1.40;99.90;;;;;;4257986;28;20039;-84
2022/12/13 07:15:32;;;;;;;10.90;10.55;;;1.40;99.90;;;;;;4243096;28;20090;-84
2022/12/13 07:17:52;;;;;;;;;;;1.40;99.90;;;;;;4243002;28;20047;-84
2022/12/13 07:20:14;;;;;;;10.90;10.60;;;1.40;99.90;;;;;;4242617;28;20264;-84
2022/12/13 07:22:36;;;;;;;12.33;11.53;;;1.40;99.90;;;;;;4258065;28;20038;-84
2022/12/13 07:25:04;;;;;;;13.13;12.48;;;1.40;99.90;;;;;;4242616;28;20046;-84
2022/12/13 07:27:24;;;;;;;12.88;12.27;;;1.40;99.90;;;;;;4242353;28;20062;-84
2022/12/13 07:29:44;;;;;;;17.65;15.82;;;1.50;99.90;;;;;;4257987;28;20056;-84
2022/12/13 07:32:04;;;;;;;14.32;13.25;;;1.50;99.90;;;;;;4258319;28;20049;-84
2022/12/13 07:34:23;;;;;;;13.35;12.18;;;1.50;99.90;;;;;;4242496;28;20043;-85
2022/12/13 07:36:43;;;;;;;13.50;12.50;;;1.50;99.90;;;;;;4257716;28;20092;-84
2022/12/13 07:39:03;;;;;;;16.08;15.18;;;1.50;99.90;;;;;;4242816;28;20112;-84
2022/12/13 07:41:24;;;;;;;15.40;14.38;;;1.50;99.90;;;;;;4241856;28;20108;-84
2022/12/13 07:43:45;;;;;;;10.32;10.13;;;1.50;99.90;;;;;;4242767;28;20055;-84
2022/12/13 07:46:05;;;;;;;19.13;17.73;;;1.60;99.90;;;;;;4257272;28;20103;-84
2022/12/13 07:48:26;;;;;;;17.02;16.17;;;1.70;99.90;;;;;;4257011;28;20088;-84
2022/12/13 07:50:46;;;;;;;11.75;11.25;;;1.70;99.90;;;;;;4256252;28;20074;-84
2022/12/13 07:53:14;;;;;;;16.25;14.98;;;1.80;99.90;;;;;;4237120;28;20058;-84
2022/12/13 07:55:35;;;;;;;10.82;10.50;;;1.80;99.90;;;;;;4257840;28;20076;-84
2022/12/13 07:58:00;;;;;;;8.02;7.93;;;1.80;99.90;;;;;;4258031;28;20083;-84
2022/12/13 08:00:23;;;;;;;11.77;11.48;;;1.80;99.90;;;;;;4256434;28;20088;-84
2022/12/13 08:02:42;;;;;;;10.40;9.95;;;1.80;99.90;;;;;;4257534;28;20068;-84
2022/12/13 08:05:03;;;;;;;9.77;9.48;;;1.80;99.90;;;;;;4241775;28;20051;-84
2022/12/13 08:07:43;;;;;;;8.85;8.65;;;1.90;99.90;;;;;;4244501;28;20050;-84
2022/12/13 08:10:03;;;;;;;8.82;8.50;;;2.00;99.90;;;;;;4256387;28;20046;-84
2022/12/13 08:12:23;;;;;;;7.68;7.57;;;2.00;99.90;;;;;;4257737;28;20142;-84
2022/12/13 08:14:43;;;;;;;9.70;9.30;;;2.00;99.90;;;;;;4242310;28;20046;-84
2022/12/13 08:17:02;;;;;;;9.00;8.80;;;2.00;99.90;;;;;;4257523;28;20309;-84
2022/12/13 08:19:22;;;;;;;10.18;9.68;;;2.10;99.90;;;;;;4242206;28;20243;-84
2022/12/13 08:21:42;;;;;;;8.95;8.75;;;2.10;99.90;;;;;;4256392;28;20059;-84
2022/12/13 08:24:14;;;;;;;17.30;15.57;;;2.10;99.90;;;;;;4244086;28;20069;-84
2022/12/13 08:26:35;;;;;;;17.25;15.93;;;2.10;99.90;;;;;;4241848;28;20356;-84
2022/12/13 08:28:55;;;;;;;11.05;10.65;;;2.20;99.90;;;;;;4256747;28;20034;-84
2022/12/13 08:31:15;;;;;;;10.30;9.88;;;2.20;99.90;;;;;;4241566;28;20065;-84
2022/12/13 08:33:35;;;;;;;10.60;10.23;;;2.30;99.90;;;;;;4257452;28;20075;-84
2022/12/13 08:35:55;;;;;;;10.73;10.23;;;2.30;99.90;;;;;;4241836;28;20043;-84
2022/12/13 08:38:15;;;;;;;11.13;10.38;;;2.30;99.90;;;;;;4256240;27;20046;-84
2022/12/13 08:40:42;;;;;;;8.88;8.30;;;2.40;99.90;;;;;;4255411;28;20072;-84
2022/12/13 08:43:02;;;;;;;9.05;8.60;;;2.40;99.90;;;;;;4257095;28;20047;-84
2022/12/13 08:45:25;;;;;;;8.68;8.48;;;2.40;99.90;;;;;;4257396;28;20045;-84
2022/12/13 08:47:45;;;;;;;10.38;10.07;;;2.40;99.90;;;;;;4256144;28;20081;-84
2022/12/13 08:50:05;;;;;;;11.10;10.63;;;2.50;99.90;;;;;;4255660;28;20211;-84
2022/12/13 08:52:25;;;;;;;36.28;27.30;;;2.50;99.90;;;;;;4256127;28;20046;-85
2022/12/13 08:54:44;;;;;;;15.77;14.65;;;2.50;99.90;;;;;;4241429;28;20085;-84
2022/12/13 08:57:04;;;;;;;10.60;10.27;;;2.50;99.90;;;;;;4256128;28;20095;-84
2022/12/13 08:59:25;;;;;;;12.15;11.65;;;2.60;99.90;;;;;;4239934;28;20108;-84
2022/12/13 09:01:45;;;;;;;23.33;21.23;;;2.70;99.90;;;;;;4239505;28;20088;-84
2022/12/13 09:04:05;;;;;;;10.40;10.10;;;2.70;99.90;;;;;;4233718;28;20070;-84
2022/12/13 09:06:25;;;;;;;8.02;7.93;;;2.70;99.90;;;;;;4256247;28;20096;-84
2022/12/13 09:08:44;;;;;;;8.15;7.95;;;2.70;99.90;;;;;;4240224;28;20121;-84
2022/12/13 09:11:12;;;;;;;9.85;9.45;;;2.70;99.90;;;;;;4255657;28;20050;-84
2022/12/13 09:13:52;;;;;;;15.75;14.63;;;2.80;99.90;;;;;;4256533;28;20231;-84
2022/12/13 09:16:22;;;;;;;12.32;11.40;;;2.80;99.90;;;;;;4240215;28;20069;-84
2022/12/13 09:18:44;;;;;;;;;;;2.90;99.90;;;;;;4257047;28;20285;-84
2022/12/13 09:21:08;;;;;;;18.65;17.30;;;3.00;99.90;;;;;;4242744;28;19983;-84
2022/12/13 09:23:31;;;;;;;21.73;19.90;;;3.00;99.90;;;;;;4254136;28;20047;-84
2022/12/13 09:25:57;;;;;;;14.98;13.98;;;3.10;99.90;;;;;;4255588;28;20084;-84
2022/12/13 09:28:26;;;;;;;10.85;10.45;;;3.20;99.90;;;;;;4237005;28;20043;-84
2022/12/13 09:30:46;;;;;;;9.82;9.63;;;3.20;99.90;;;;;;4239814;28;20050;-84
2022/12/13 09:33:06;;;;;;;8.07;7.93;;;3.30;99.90;;;;;;4241016;28;20042;-84
2022/12/13 09:35:46;;;;;;;10.18;9.75;;;3.20;99.90;;;;;;4243419;28;20365;-85
2022/12/13 09:38:05;;;;;;;8.05;7.75;;;3.30;99.90;;;;;;4255060;28;20084;-84
2022/12/13 09:40:27;;;;;;;11.20;10.52;;;3.30;99.90;;;;;;4239192;28;20058;-84
2022/12/13 09:42:50;;;;;;;10.50;9.93;;;3.40;99.90;;;;;;4256173;28;20052;-84
2022/12/13 09:45:31;;;;;;;8.80;8.43;;;3.60;99.90;;;;;;4237102;28;20145;-85
2022/12/13 09:47:52;;;;;;;14.02;12.77;;;3.70;99.90;;;;;;4255348;28;20054;-85
2022/12/13 09:50:24;;;;;;;9.05;8.63;;;3.70;99.90;;;;;;4254765;27;20260;-84
2022/12/13 09:52:45;;;;;;;7.88;7.63;;;3.60;99.90;;;;;;4239626;28;20138;-84
2022/12/13 09:55:29;;;;;;;9.13;8.75;;;3.60;99.90;;;;;;4239356;28;20483;-84
2022/12/13 09:57:51;;;;;;;6.32;6.13;;;3.70;99.90;;;;;;4240769;28;20563;-84
2022/12/13 10:00:15;;;;;;;6.72;6.53;;;3.80;99.90;;;;;;4254713;28;20062;-84
2022/12/13 10:02:57;;;;;;;6.25;6.15;;;3.80;99.90;;;;;;4255703;28;20092;-84
2022/12/13 10:05:28;;;;;;;8.00;7.70;;;3.90;99.90;;;;;;4256448;28;20117;-85
2022/12/13 10:08:03;;;;;;;13.57;12.52;;;3.90;99.90;;;;;;4256127;28;20385;-84
2022/12/13 10:10:23;;;;;;;8.23;7.93;;;4.00;99.90;;;;;;4255640;28;20380;-84
2022/12/13 10:12:47;;;;;;;9.68;9.30;;;4.10;99.90;;;;;;4256218;28;20076;-84
2022/12/13 10:15:09;;;;;;;15.95;14.57;;;4.10;99.90;;;;;;4254988;28;20062;-85
2022/12/13 10:17:35;;;;;;;12.80;11.70;;;4.10;99.90;;;;;;4240928;28;20042;-84
2022/12/13 10:19:58;;;;;;;6.47;6.18;;;4.10;99.90;;;;;;4239485;28;20103;-84
2022/12/13 10:22:19;;;;;;;12.05;11.15;;;4.10;99.90;;;;;;4256170;28;20110;-85
2022/12/13 10:25:02;;;;;;;13.70;12.57;;;4.10;99.90;;;;;;4240267;28;20098;-84
2022/12/13 10:27:35;;;;;;;6.80;6.60;;;4.20;99.90;;;;;;4255813;28;20058;-84
2022/12/13 10:29:55;;;;;;;8.27;7.93;;;4.20;99.90;;;;;;4254736;28;20084;-84
2022/12/13 10:32:18;;;;;;;8.90;8.60;;;4.10;99.90;;;;;;4240310;28;20116;-84
2022/12/13 10:34:38;;;;;;;7.43;7.22;;;4.20;99.90;;;;;;4240302;28;20394;-85
2022/12/13 10:36:59;;;;;;;9.85;9.30;;;4.20;99.90;;;;;;4240163;28;20043;-84
2022/12/13 10:39:46;;;;;;;7.78;7.57;;;4.20;99.90;;;;;;4240515;28;20054;-84
2022/12/13 10:42:13;;;;;;;5.53;5.43;;;4.30;99.90;;;;;;4240564;28;20459;-84
2022/12/13 10:44:43;;;;;;;7.82;7.63;;;4.20;99.90;;;;;;4255824;28;20147;-84
2022/12/13 10:47:09;;;;;;;12.98;12.32;;;4.20;99.90;;;;;;4240484;28;20046;-84
2022/12/13 10:49:47;;;;;;;10.25;9.70;;;4.20;99.90;;;;;;4248729;28;20054;-84
2022/12/13 10:52:26;;;;;;;12.23;11.48;;;4.20;99.90;;;;;;4248400;28;20277;-84
2022/12/13 10:54:51;;;;;;;10.10;9.70;;;4.20;99.90;;;;;;4242389;28;20080;-84
2022/12/13 10:57:20;;;;;;;8.93;8.63;;;4.30;99.90;;;;;;4268469;27;20034;-84
2022/12/13 10:59:40;;;;;;;15.32;13.85;;;4.30;99.90;;;;;;4266507;27;20072;-84
2022/12/13 11:02:20;;;;;;;10.75;9.98;;;4.20;99.90;;;;;;4261036;27;20310;-85
2022/12/13 11:04:40;;;;;;;12.27;11.57;;;4.20;99.90;;;;;;4258910;28;20062;-84
2022/12/13 11:07:20;;;;;;;17.05;15.93;;;4.20;99.90;;;;;;4258382;28;20050;-84
2022/12/13 11:09:40;;;;;;;16.00;14.95;;;4.30;99.90;;;;;;4243120;28;20062;-84
2022/12/13 11:12:12;;;;;;;7.45;7.25;;;4.40;99.90;;;;;;4243172;28;20086;-84
2022/12/13 11:14:36;;;;;;;7.20;6.88;;;4.40;99.90;;;;;;4242844;28;20035;-84
2022/12/13 11:17:15;;;;;;;7.82;7.72;;;4.30;99.90;;;;;;4258177;28;20046;-85
2022/12/13 11:19:39;;;;;;;9.10;8.80;;;4.40;99.90;;;;;;4241866;28;20043;-84
2022/12/13 11:22:00;;;;;;;7.13;6.93;;;4.40;99.90;;;;;;4242378;28;20066;-84
2022/12/13 11:24:27;;;;;;;5.70;5.43;;;4.40;99.90;;;;;;4242971;28;20043;-83
2022/12/13 11:27:00;;;;;;;5.90;5.80;;;4.30;99.90;;;;;;4241134;28;20058;-84
2022/12/13 11:29:31;;;;;;;6.38;6.28;;;4.30;99.90;;;;;;4258155;28;20060;-83
2022/12/13 11:32:14;;;;;;;7.38;7.18;;;4.30;99.90;;;;;;4257178;28;20269;-83
2022/12/13 11:34:45;;;;;;;4.10;4.10;;;4.40;99.90;;;;;;4257761;28;20110;-83
2022/12/13 11:37:24;;;;;;;6.80;6.60;;;4.40;99.90;;;;;;4242926;28;20385;-84
2022/12/13 11:40:15;;;;;;;6.15;5.95;;;4.40;99.90;;;;;;4242098;28;20042;-83
2022/12/13 11:42:48;;;;;;;6.55;6.45;;;4.50;99.90;;;;;;4208332;28;20136;-83
2022/12/13 11:45:36;;;;;;;8.05;7.72;;;4.50;99.90;;;;;;4221711;28;20154;-83
2022/12/13 11:48:08;;;;;;;6.15;5.95;;;4.50;99.90;;;;;;4222361;28;20066;-84
2022/12/13 11:50:43;;;;;;;6.50;6.40;;;4.50;99.90;;;;;;4221151;28;20166;-83
2022/12/13 11:53:26;;;;;;;5.60;5.25;;;4.60;99.90;;;;;;4207665;28;20047;-84
2022/12/13 11:56:22;;;;;;;6.60;6.50;;;4.60;99.90;;;;;;4172312;28;20080;-83
2022/12/13 11:59:06;;;;;;;5.85;5.75;;;4.60;99.90;;;;;;4172170;28;20047;-83
2022/12/13 12:01:50;;;;;;;6.95;6.78;;;4.50;99.90;;;;;;4171075;28;20359;-83
2022/12/13 12:04:39;;;;;;;7.00;6.70;;;4.50;99.90;;;;;;4172655;28;20112;-83
2022/12/13 12:07:05;;;;;;;7.57;7.38;;;4.50;99.90;;;;;;4171882;28;20202;-83
2022/12/13 12:09:50;;;;;;;4.95;4.85;;;4.60;99.90;;;;;;4161119;28;20113;-83
2022/12/13 12:12:31;;;;;;;4.50;4.47;;;4.60;99.90;;;;;;4172396;28;20048;-83
2022/12/13 12:14:58;;;;;;;7.18;6.88;;;4.60;99.90;;;;;;4171270;28;20056;-84
2022/12/13 12:17:25;;;;;;;5.45;5.25;;;4.60;99.90;;;;;;4158617;28;20403;-83
2022/12/13 12:19:50;;;;;;;5.40;5.25;;;4.70;99.90;;;;;;4172800;28;20052;-83
2022/12/13 12:22:25;;;;;;;5.80;5.65;;;4.60;99.90;;;;;;4188715;28;20276;-83
2022/12/13 12:24:56;;;;;;;4.70;4.60;;;4.60;99.90;;;;;;4188353;28;20056;-83
2022/12/13 12:27:28;;;;;;;4.25;4.25;;;4.50;99.90;;;;;;4188682;28;20394;-83
2022/12/13 12:30:18;;;;;;;5.13;5.03;;;4.50;99.90;;;;;;4188675;28;20048;-83
2022/12/13 12:32:59;;;;;;;14.98;13.70;;;4.60;99.90;;;;;;4220116;28;20387;-83
2022/12/13 12:35:45;;;;;;;10.57;10.13;;;4.60;99.90;;;;;;4257344;27;20414;-84
2022/12/13 12:38:40;;;;;;;11.05;10.38;;;4.60;99.90;;;;;;4231908;28;20145;-84
2022/12/13 12:41:19;;;;;;;;;;;4.50;99.90;;;;;;4256244;28;20146;-84
2022/12/13 12:43:41;;;;;;;9.88;9.38;;;4.50;99.90;;;;;;4257251;28;20218;-84
2022/12/13 12:46:13;;;;;;;6.97;6.78;;;4.60;99.90;;;;;;4241795;28;20058;-84